sensor_id;sensor_type;location;lat;lon;timestamp;P1;durP1;ratioP1;P2;durP2;ratioP2
12844;SDS011;68700;48.534;9.196;2023-05-28T00:03:16;8.17;;;5.57;;
12844;SDS011;68700;48.534;9.196;2023-05-28T00:06:39;8.90;;;6.47;;
12844;SDS011;68700;48.534;9.196;2023-05-28T00:10:01;7.47;;;5.87;;
12844;SDS011;68700;48.534;9.196;2023-05-28T00:13:25;7.87;;;5.87;;
12844;SDS011;68700;48.534;9.196;2023-05-28T00:16:47;6.50;;;5.50;;
12844;SDS011;68700;48.534;9.196;2023-05-28T00:20:11;7.47;;;4.77;;
12844;SDS011;68700;48.534;9.196;2023-05-28T00:23:33;7.77;;;5.63;;
12844;SDS011;68700;48.534;9.196;2023-05-28T00:26:55;10.97;;;6.80;;
12844;SDS011;68700;48.534;9.196;2023-05-28T00:30:18;8.73;;;5.77;;
12844;SDS011;68700;48.534;9.196;2023-05-28T00:33:41;7.23;;;5.73;;
12844;SDS011;68700;48.534;9.196;2023-05-28T00:37:03;8.83;;;6.10;;
12844;SDS011;68700;48.534;9.196;2023-05-28T00:40:26;9.37;;;5.93;;
12844;SDS011;68700;48.534;9.196;2023-05-28T00:43:48;8.13;;;5.73;;
12844;SDS011;68700;48.534;9.196;2023-05-28T00:47:11;8.07;;;5.83;;
12844;SDS011;68700;48.534;9.196;2023-05-28T00:50:35;7.83;;;5.53;;
12844;SDS011;68700;48.534;9.196;2023-05-28T00:53:58;9.03;;;6.27;;
12844;SDS011;68700;48.534;9.196;2023-05-28T00:57:20;7.87;;;5.57;;
12844;SDS011;68700;48.534;9.196;2023-05-28T01:00:43;8.03;;;5.73;;
12844;SDS011;68700;48.534;9.196;2023-05-28T01:04:06;9.67;;;5.97;;
12844;SDS011;68700;48.534;9.196;2023-05-28T01:07:28;6.47;;;5.73;;
12844;SDS011;68700;48.534;9.196;2023-05-28T01:10:50;11.43;;;6.20;;
12844;SDS011;68700;48.534;9.196;2023-05-28T01:14:12;6.97;;;5.70;;
12844;SDS011;68700;48.534;9.196;2023-05-28T01:17:35;10.57;;;6.40;;
12844;SDS011;68700;48.534;9.196;2023-05-28T01:20:59;7.63;;;5.57;;
12844;SDS011;68700;48.534;9.196;2023-05-28T01:24:24;7.10;;;6.00;;
12844;SDS011;68700;48.534;9.196;2023-05-28T01:27:48;9.10;;;5.90;;
12844;SDS011;68700;48.534;9.196;2023-05-28T01:31:11;7.83;;;6.47;;
12844;SDS011;68700;48.534;9.196;2023-05-28T01:34:33;8.43;;;5.37;;
12844;SDS011;68700;48.534;9.196;2023-05-28T01:37:54;7.03;;;6.13;;
12844;SDS011;68700;48.534;9.196;2023-05-28T01:41:21;7.47;;;5.70;;
12844;SDS011;68700;48.534;9.196;2023-05-28T01:44:43;9.87;;;6.50;;
12844;SDS011;68700;48.534;9.196;2023-05-28T01:48:06;9.90;;;6.30;;
12844;SDS011;68700;48.534;9.196;2023-05-28T01:51:29;6.17;;;5.57;;
12844;SDS011;68700;48.534;9.196;2023-05-28T01:54:52;9.30;;;6.37;;
12844;SDS011;68700;48.534;9.196;2023-05-28T01:58:15;9.43;;;6.73;;
12844;SDS011;68700;48.534;9.196;2023-05-28T02:01:37;13.03;;;8.20;;
12844;SDS011;68700;48.534;9.196;2023-05-28T02:04:59;12.50;;;7.73;;
12844;SDS011;68700;48.534;9.196;2023-05-28T02:08:21;10.03;;;6.90;;
12844;SDS011;68700;48.534;9.196;2023-05-28T02:11:43;10.17;;;6.90;;
12844;SDS011;68700;48.534;9.196;2023-05-28T02:15:07;9.43;;;6.97;;
12844;SDS011;68700;48.534;9.196;2023-05-28T02:18:31;11.13;;;7.17;;
12844;SDS011;68700;48.534;9.196;2023-05-28T02:21:53;10.20;;;6.77;;
12844;SDS011;68700;48.534;9.196;2023-05-28T02:25:16;9.10;;;7.33;;
12844;SDS011;68700;48.534;9.196;2023-05-28T02:28:37;9.83;;;6.73;;
12844;SDS011;68700;48.534;9.196;2023-05-28T02:32:04;10.13;;;6.70;;
12844;SDS011;68700;48.534;9.196;2023-05-28T02:35:27;7.00;;;5.93;;
12844;SDS011;68700;48.534;9.196;2023-05-28T02:38:48;8.43;;;7.13;;
12844;SDS011;68700;48.534;9.196;2023-05-28T02:42:10;7.87;;;6.80;;
12844;SDS011;68700;48.534;9.196;2023-05-28T02:45:32;10.17;;;6.77;;
12844;SDS011;68700;48.534;9.196;2023-05-28T02:48:55;9.87;;;6.43;;
12844;SDS011;68700;48.534;9.196;2023-05-28T02:52:17;9.33;;;6.23;;
12844;SDS011;68700;48.534;9.196;2023-05-28T02:55:39;9.13;;;7.03;;
12844;SDS011;68700;48.534;9.196;2023-05-28T02:59:01;12.23;;;7.30;;
12844;SDS011;68700;48.534;9.196;2023-05-28T03:02:23;10.50;;;6.93;;
12844;SDS011;68700;48.534;9.196;2023-05-28T03:05:47;13.57;;;7.57;;
12844;SDS011;68700;48.534;9.196;2023-05-28T03:09:10;9.93;;;7.20;;
12844;SDS011;68700;48.534;9.196;2023-05-28T03:12:32;9.43;;;6.40;;
12844;SDS011;68700;48.534;9.196;2023-05-28T03:15:54;8.43;;;6.17;;
12844;SDS011;68700;48.534;9.196;2023-05-28T03:19:16;10.33;;;6.30;;
12844;SDS011;68700;48.534;9.196;2023-05-28T03:22:39;9.17;;;7.10;;
12844;SDS011;68700;48.534;9.196;2023-05-28T03:26:01;11.27;;;7.10;;
12844;SDS011;68700;48.534;9.196;2023-05-28T03:29:23;7.90;;;5.67;;
12844;SDS011;68700;48.534;9.196;2023-05-28T03:32:45;8.13;;;5.97;;
12844;SDS011;68700;48.534;9.196;2023-05-28T03:36:07;11.03;;;7.20;;
12844;SDS011;68700;48.534;9.196;2023-05-28T03:39:31;9.77;;;6.63;;
12844;SDS011;68700;48.534;9.196;2023-05-28T03:42:53;7.73;;;6.33;;
12844;SDS011;68700;48.534;9.196;2023-05-28T03:46:15;9.87;;;6.40;;
12844;SDS011;68700;48.534;9.196;2023-05-28T03:49:37;8.90;;;6.30;;
12844;SDS011;68700;48.534;9.196;2023-05-28T03:52:59;10.03;;;6.80;;
12844;SDS011;68700;48.534;9.196;2023-05-28T03:56:22;9.43;;;6.00;;
12844;SDS011;68700;48.534;9.196;2023-05-28T03:59:44;8.83;;;6.60;;
12844;SDS011;68700;48.534;9.196;2023-05-28T04:03:06;9.07;;;6.50;;
12844;SDS011;68700;48.534;9.196;2023-05-28T04:06:28;8.57;;;7.40;;
12844;SDS011;68700;48.534;9.196;2023-05-28T04:09:50;9.97;;;5.87;;
12844;SDS011;68700;48.534;9.196;2023-05-28T04:13:13;11.50;;;6.57;;
12844;SDS011;68700;48.534;9.196;2023-05-28T04:16:35;10.90;;;6.30;;
12844;SDS011;68700;48.534;9.196;2023-05-28T04:19:57;9.40;;;6.60;;
12844;SDS011;68700;48.534;9.196;2023-05-28T04:23:19;9.27;;;6.87;;
12844;SDS011;68700;48.534;9.196;2023-05-28T04:26:41;8.20;;;6.17;;
12844;SDS011;68700;48.534;9.196;2023-05-28T04:30:05;10.73;;;7.30;;
12844;SDS011;68700;48.534;9.196;2023-05-28T04:33:28;8.83;;;6.97;;
12844;SDS011;68700;48.534;9.196;2023-05-28T04:36:50;11.37;;;7.80;;
12844;SDS011;68700;48.534;9.196;2023-05-28T04:40:12;9.50;;;7.50;;
12844;SDS011;68700;48.534;9.196;2023-05-28T04:43:34;14.20;;;8.53;;
12844;SDS011;68700;48.534;9.196;2023-05-28T04:46:58;15.10;;;9.13;;
12844;SDS011;68700;48.534;9.196;2023-05-28T04:50:20;13.13;;;8.13;;
12844;SDS011;68700;48.534;9.196;2023-05-28T04:53:42;15.33;;;8.83;;
12844;SDS011;68700;48.534;9.196;2023-05-28T04:57:04;13.07;;;8.07;;
12844;SDS011;68700;48.534;9.196;2023-05-28T05:00:26;9.23;;;7.43;;
12844;SDS011;68700;48.534;9.196;2023-05-28T05:03:49;11.37;;;8.40;;
12844;SDS011;68700;48.534;9.196;2023-05-28T05:07:11;13.13;;;7.67;;
12844;SDS011;68700;48.534;9.196;2023-05-28T05:10:34;10.13;;;7.70;;
12844;SDS011;68700;48.534;9.196;2023-05-28T05:13:56;11.77;;;7.50;;
12844;SDS011;68700;48.534;9.196;2023-05-28T05:17:18;14.20;;;7.70;;
12844;SDS011;68700;48.534;9.196;2023-05-28T05:20:41;12.10;;;7.70;;
12844;SDS011;68700;48.534;9.196;2023-05-28T05:24:06;9.07;;;7.77;;
12844;SDS011;68700;48.534;9.196;2023-05-28T05:27:28;12.37;;;8.50;;
12844;SDS011;68700;48.534;9.196;2023-05-28T05:30:50;11.07;;;7.93;;
12844;SDS011;68700;48.534;9.196;2023-05-28T05:34:12;10.30;;;7.50;;
12844;SDS011;68700;48.534;9.196;2023-05-28T05:37:35;11.43;;;7.47;;
12844;SDS011;68700;48.534;9.196;2023-05-28T05:40:57;10.63;;;7.47;;
12844;SDS011;68700;48.534;9.196;2023-05-28T05:44:19;8.43;;;7.57;;
12844;SDS011;68700;48.534;9.196;2023-05-28T05:47:41;9.37;;;7.43;;
12844;SDS011;68700;48.534;9.196;2023-05-28T05:51:05;10.73;;;6.97;;
12844;SDS011;68700;48.534;9.196;2023-05-28T05:54:28;11.50;;;7.13;;
12844;SDS011;68700;48.534;9.196;2023-05-28T05:57:50;11.13;;;7.77;;
12844;SDS011;68700;48.534;9.196;2023-05-28T06:01:15;12.50;;;8.07;;
12844;SDS011;68700;48.534;9.196;2023-05-28T06:04:37;10.03;;;7.40;;
12844;SDS011;68700;48.534;9.196;2023-05-28T06:07:59;10.37;;;6.80;;
12844;SDS011;68700;48.534;9.196;2023-05-28T06:11:23;9.10;;;7.10;;
12844;SDS011;68700;48.534;9.196;2023-05-28T06:14:45;9.57;;;7.27;;
12844;SDS011;68700;48.534;9.196;2023-05-28T06:18:07;11.00;;;6.70;;
12844;SDS011;68700;48.534;9.196;2023-05-28T06:21:29;11.80;;;7.37;;
12844;SDS011;68700;48.534;9.196;2023-05-28T06:24:51;9.97;;;6.63;;
12844;SDS011;68700;48.534;9.196;2023-05-28T06:28:17;9.00;;;6.53;;
12844;SDS011;68700;48.534;9.196;2023-05-28T06:31:39;11.23;;;7.43;;
12844;SDS011;68700;48.534;9.196;2023-05-28T06:35:01;9.48;;;7.10;;
12844;SDS011;68700;48.534;9.196;2023-05-28T06:38:23;8.43;;;6.07;;
12844;SDS011;68700;48.534;9.196;2023-05-28T06:41:47;9.87;;;6.03;;
12844;SDS011;68700;48.534;9.196;2023-05-28T06:45:11;12.63;;;6.10;;
12844;SDS011;68700;48.534;9.196;2023-05-28T06:48:34;10.10;;;5.87;;
12844;SDS011;68700;48.534;9.196;2023-05-28T06:51:56;10.43;;;5.80;;
12844;SDS011;68700;48.534;9.196;2023-05-28T06:55:18;9.00;;;5.93;;
12844;SDS011;68700;48.534;9.196;2023-05-28T06:58:39;9.07;;;5.60;;
12844;SDS011;68700;48.534;9.196;2023-05-28T07:02:03;8.57;;;6.10;;
12844;SDS011;68700;48.534;9.196;2023-05-28T07:05:25;9.70;;;5.50;;
12844;SDS011;68700;48.534;9.196;2023-05-28T07:08:47;7.90;;;5.13;;
12844;SDS011;68700;48.534;9.196;2023-05-28T07:12:09;8.73;;;5.87;;
12844;SDS011;68700;48.534;9.196;2023-05-28T07:15:31;9.77;;;5.97;;
12844;SDS011;68700;48.534;9.196;2023-05-28T07:18:54;8.70;;;5.70;;
12844;SDS011;68700;48.534;9.196;2023-05-28T07:22:17;7.83;;;5.17;;
12844;SDS011;68700;48.534;9.196;2023-05-28T07:25:39;9.30;;;5.53;;
12844;SDS011;68700;48.534;9.196;2023-05-28T07:29:03;8.50;;;5.10;;
12844;SDS011;68700;48.534;9.196;2023-05-28T07:32:25;10.40;;;5.27;;
12844;SDS011;68700;48.534;9.196;2023-05-28T07:35:48;8.10;;;4.90;;
12844;SDS011;68700;48.534;9.196;2023-05-28T07:39:10;7.40;;;5.20;;
12844;SDS011;68700;48.534;9.196;2023-05-28T07:42:32;6.87;;;4.70;;
12844;SDS011;68700;48.534;9.196;2023-05-28T07:45:54;9.03;;;4.97;;
12844;SDS011;68700;48.534;9.196;2023-05-28T07:49:16;9.90;;;5.27;;
12844;SDS011;68700;48.534;9.196;2023-05-28T07:52:39;7.63;;;5.77;;
12844;SDS011;68700;48.534;9.196;2023-05-28T07:56:01;8.90;;;5.97;;
12844;SDS011;68700;48.534;9.196;2023-05-28T07:59:22;8.50;;;5.77;;
12844;SDS011;68700;48.534;9.196;2023-05-28T08:02:44;9.57;;;6.00;;
12844;SDS011;68700;48.534;9.196;2023-05-28T08:06:06;10.23;;;5.40;;
12844;SDS011;68700;48.534;9.196;2023-05-28T08:09:30;8.40;;;5.30;;
12844;SDS011;68700;48.534;9.196;2023-05-28T08:12:52;6.82;;;4.80;;
12844;SDS011;68700;48.534;9.196;2023-05-28T08:16:14;7.22;;;5.03;;
12844;SDS011;68700;48.534;9.196;2023-05-28T08:19:36;7.68;;;4.90;;
12844;SDS011;68700;48.534;9.196;2023-05-28T08:22:58;8.02;;;5.03;;
12844;SDS011;68700;48.534;9.196;2023-05-28T08:26:22;8.45;;;5.00;;
12844;SDS011;68700;48.534;9.196;2023-05-28T08:29:43;7.85;;;5.13;;
12844;SDS011;68700;48.534;9.196;2023-05-28T08:33:05;9.48;;;5.25;;
12844;SDS011;68700;48.534;9.196;2023-05-28T08:36:27;9.13;;;4.97;;
12844;SDS011;68700;48.534;9.196;2023-05-28T08:39:49;7.20;;;4.85;;
12844;SDS011;68700;48.534;9.196;2023-05-28T08:43:12;8.65;;;5.22;;
12844;SDS011;68700;48.534;9.196;2023-05-28T08:46:35;7.13;;;5.05;;
12844;SDS011;68700;48.534;9.196;2023-05-28T08:49:58;6.97;;;5.00;;
12844;SDS011;68700;48.534;9.196;2023-05-28T08:53:24;8.68;;;5.50;;
12844;SDS011;68700;48.534;9.196;2023-05-28T08:56:50;7.70;;;5.07;;
12844;SDS011;68700;48.534;9.196;2023-05-28T09:00:14;6.93;;;5.10;;
12844;SDS011;68700;48.534;9.196;2023-05-28T09:03:37;9.00;;;5.10;;
12844;SDS011;68700;48.534;9.196;2023-05-28T09:07:00;7.88;;;5.30;;
12844;SDS011;68700;48.534;9.196;2023-05-28T09:10:22;7.82;;;5.32;;
12844;SDS011;68700;48.534;9.196;2023-05-28T09:13:44;8.10;;;5.32;;
12844;SDS011;68700;48.534;9.196;2023-05-28T09:17:09;7.28;;;5.07;;
12844;SDS011;68700;48.534;9.196;2023-05-28T09:20:33;8.68;;;5.00;;
12844;SDS011;68700;48.534;9.196;2023-05-28T09:23:55;8.88;;;5.28;;
12844;SDS011;68700;48.534;9.196;2023-05-28T09:27:17;8.80;;;5.20;;
12844;SDS011;68700;48.534;9.196;2023-05-28T09:30:40;7.00;;;5.03;;
12844;SDS011;68700;48.534;9.196;2023-05-28T09:34:04;8.48;;;5.30;;
12844;SDS011;68700;48.534;9.196;2023-05-28T09:37:27;7.30;;;5.35;;
12844;SDS011;68700;48.534;9.196;2023-05-28T09:40:50;8.07;;;5.35;;
12844;SDS011;68700;48.534;9.196;2023-05-28T09:44:11;8.10;;;5.35;;
12844;SDS011;68700;48.534;9.196;2023-05-28T09:47:33;8.38;;;5.53;;
12844;SDS011;68700;48.534;9.196;2023-05-28T09:51:04;7.15;;;5.53;;
12844;SDS011;68700;48.534;9.196;2023-05-28T09:54:29;8.20;;;5.07;;
12844;SDS011;68700;48.534;9.196;2023-05-28T09:58:00;10.50;;;6.00;;
12844;SDS011;68700;48.534;9.196;2023-05-28T10:01:23;7.05;;;5.30;;
12844;SDS011;68700;48.534;9.196;2023-05-28T10:04:46;6.70;;;5.50;;
12844;SDS011;68700;48.534;9.196;2023-05-28T10:08:15;8.30;;;5.22;;
12844;SDS011;68700;48.534;9.196;2023-05-28T10:11:39;7.65;;;5.47;;
12844;SDS011;68700;48.534;9.196;2023-05-28T10:15:03;10.02;;;5.88;;
12844;SDS011;68700;48.534;9.196;2023-05-28T10:18:27;6.55;;;5.20;;
12844;SDS011;68700;48.534;9.196;2023-05-28T10:21:49;9.05;;;5.85;;
12844;SDS011;68700;48.534;9.196;2023-05-28T10:25:13;7.28;;;5.00;;
12844;SDS011;68700;48.534;9.196;2023-05-28T10:28:35;8.30;;;5.57;;
12844;SDS011;68700;48.534;9.196;2023-05-28T10:31:58;8.05;;;5.80;;
12844;SDS011;68700;48.534;9.196;2023-05-28T10:35:20;7.95;;;5.72;;
12844;SDS011;68700;48.534;9.196;2023-05-28T10:38:43;7.72;;;5.32;;
12844;SDS011;68700;48.534;9.196;2023-05-28T10:42:08;8.10;;;5.80;;
12844;SDS011;68700;48.534;9.196;2023-05-28T10:45:34;7.13;;;5.45;;
12844;SDS011;68700;48.534;9.196;2023-05-28T10:49:07;7.28;;;5.70;;
12844;SDS011;68700;48.534;9.196;2023-05-28T10:52:31;8.15;;;5.13;;
12844;SDS011;68700;48.534;9.196;2023-05-28T10:55:54;8.07;;;5.60;;
12844;SDS011;68700;48.534;9.196;2023-05-28T10:59:17;7.95;;;5.50;;
12844;SDS011;68700;48.534;9.196;2023-05-28T11:02:56;9.70;;;5.80;;
12844;SDS011;68700;48.534;9.196;2023-05-28T11:06:18;7.95;;;5.43;;
12844;SDS011;68700;48.534;9.196;2023-05-28T11:09:41;6.53;;;5.13;;
12844;SDS011;68700;48.534;9.196;2023-05-28T11:13:02;8.38;;;5.15;;
12844;SDS011;68700;48.534;9.196;2023-05-28T11:16:26;8.43;;;5.25;;
12844;SDS011;68700;48.534;9.196;2023-05-28T11:19:53;6.38;;;5.20;;
12844;SDS011;68700;48.534;9.196;2023-05-28T11:23:15;8.77;;;5.45;;
12844;SDS011;68700;48.534;9.196;2023-05-28T11:26:37;7.28;;;5.32;;
12844;SDS011;68700;48.534;9.196;2023-05-28T11:29:59;6.47;;;4.90;;
12844;SDS011;68700;48.534;9.196;2023-05-28T11:33:25;7.40;;;5.40;;
12844;SDS011;68700;48.534;9.196;2023-05-28T11:36:48;9.77;;;5.65;;
12844;SDS011;68700;48.534;9.196;2023-05-28T11:40:10;6.78;;;5.05;;
12844;SDS011;68700;48.534;9.196;2023-05-28T11:43:34;6.00;;;4.95;;
12844;SDS011;68700;48.534;9.196;2023-05-28T11:46:56;6.97;;;5.20;;
12844;SDS011;68700;48.534;9.196;2023-05-28T11:50:19;7.85;;;5.55;;
12844;SDS011;68700;48.534;9.196;2023-05-28T11:53:42;5.88;;;5.20;;
12844;SDS011;68700;48.534;9.196;2023-05-28T11:57:05;6.20;;;4.93;;
12844;SDS011;68700;48.534;9.196;2023-05-28T12:00:30;6.93;;;5.35;;
12844;SDS011;68700;48.534;9.196;2023-05-28T12:04:02;6.35;;;5.60;;
12844;SDS011;68700;48.534;9.196;2023-05-28T12:07:29;6.90;;;5.20;;
12844;SDS011;68700;48.534;9.196;2023-05-28T12:10:52;8.85;;;6.90;;
12844;SDS011;68700;48.534;9.196;2023-05-28T12:14:19;7.35;;;5.43;;
12844;SDS011;68700;48.534;9.196;2023-05-28T12:17:42;7.57;;;5.03;;
12844;SDS011;68700;48.534;9.196;2023-05-28T12:21:09;6.75;;;5.30;;
12844;SDS011;68700;48.534;9.196;2023-05-28T12:24:33;8.68;;;5.32;;
12844;SDS011;68700;48.534;9.196;2023-05-28T12:27:54;7.50;;;5.10;;
12844;SDS011;68700;48.534;9.196;2023-05-28T12:31:17;7.00;;;5.07;;
12844;SDS011;68700;48.534;9.196;2023-05-28T12:34:47;8.50;;;4.80;;
12844;SDS011;68700;48.534;9.196;2023-05-28T12:38:11;8.18;;;5.00;;
12844;SDS011;68700;48.534;9.196;2023-05-28T12:41:35;6.95;;;4.80;;
12844;SDS011;68700;48.534;9.196;2023-05-28T12:44:57;12.25;;;7.22;;
12844;SDS011;68700;48.534;9.196;2023-05-28T12:48:19;6.15;;;5.53;;
12844;SDS011;68700;48.534;9.196;2023-05-28T12:51:40;9.00;;;5.28;;
12844;SDS011;68700;48.534;9.196;2023-05-28T12:55:03;7.78;;;4.70;;
12844;SDS011;68700;48.534;9.196;2023-05-28T12:58:27;8.73;;;6.00;;
12844;SDS011;68700;48.534;9.196;2023-05-28T13:01:48;6.55;;;5.30;;
12844;SDS011;68700;48.534;9.196;2023-05-28T13:05:10;7.15;;;5.45;;
12844;SDS011;68700;48.534;9.196;2023-05-28T13:08:32;12.40;;;9.25;;
12844;SDS011;68700;48.534;9.196;2023-05-28T13:11:54;9.38;;;6.25;;
12844;SDS011;68700;48.534;9.196;2023-05-28T13:15:18;7.38;;;5.85;;
12844;SDS011;68700;48.534;9.196;2023-05-28T13:18:40;12.68;;;9.38;;
12844;SDS011;68700;48.534;9.196;2023-05-28T13:22:02;7.75;;;5.97;;
12844;SDS011;68700;48.534;9.196;2023-05-28T13:25:24;8.32;;;6.13;;
12844;SDS011;68700;48.534;9.196;2023-05-28T13:28:46;10.23;;;7.07;;
12844;SDS011;68700;48.534;9.196;2023-05-28T13:32:10;11.85;;;6.95;;
12844;SDS011;68700;48.534;9.196;2023-05-28T13:35:32;7.35;;;5.82;;
12844;SDS011;68700;48.534;9.196;2023-05-28T13:38:54;7.65;;;6.07;;
12844;SDS011;68700;48.534;9.196;2023-05-28T13:42:16;7.68;;;5.70;;
12844;SDS011;68700;48.534;9.196;2023-05-28T13:45:39;7.90;;;6.43;;
12844;SDS011;68700;48.534;9.196;2023-05-28T13:49:02;10.57;;;6.68;;
12844;SDS011;68700;48.534;9.196;2023-05-28T13:52:24;9.30;;;6.50;;
12844;SDS011;68700;48.534;9.196;2023-05-28T13:55:46;8.70;;;5.80;;
12844;SDS011;68700;48.534;9.196;2023-05-28T13:59:08;7.80;;;5.72;;
12844;SDS011;68700;48.534;9.196;2023-05-28T14:02:30;6.75;;;5.68;;
12844;SDS011;68700;48.534;9.196;2023-05-28T14:05:53;7.65;;;5.93;;
12844;SDS011;68700;48.534;9.196;2023-05-28T14:09:16;8.45;;;6.40;;
12844;SDS011;68700;48.534;9.196;2023-05-28T14:12:38;9.98;;;6.13;;
12844;SDS011;68700;48.534;9.196;2023-05-28T14:16:00;9.20;;;6.45;;
12844;SDS011;68700;48.534;9.196;2023-05-28T14:19:22;9.25;;;5.95;;
12844;SDS011;68700;48.534;9.196;2023-05-28T14:22:45;10.65;;;6.05;;
12844;SDS011;68700;48.534;9.196;2023-05-28T14:26:09;7.85;;;5.75;;
12844;SDS011;68700;48.534;9.196;2023-05-28T14:29:31;6.53;;;5.65;;
12844;SDS011;68700;48.534;9.196;2023-05-28T14:32:53;6.88;;;6.00;;
12844;SDS011;68700;48.534;9.196;2023-05-28T14:36:15;8.07;;;6.07;;
12844;SDS011;68700;48.534;9.196;2023-05-28T14:39:38;7.32;;;6.20;;
12844;SDS011;68700;48.534;9.196;2023-05-28T14:43:00;7.05;;;5.68;;
12844;SDS011;68700;48.534;9.196;2023-05-28T14:46:22;7.20;;;5.43;;
12844;SDS011;68700;48.534;9.196;2023-05-28T14:49:44;7.70;;;5.07;;
12844;SDS011;68700;48.534;9.196;2023-05-28T14:53:06;7.97;;;5.13;;
12844;SDS011;68700;48.534;9.196;2023-05-28T14:56:29;6.03;;;4.90;;
12844;SDS011;68700;48.534;9.196;2023-05-28T14:59:51;8.00;;;5.75;;
12844;SDS011;68700;48.534;9.196;2023-05-28T15:03:14;7.90;;;5.20;;
12844;SDS011;68700;48.534;9.196;2023-05-28T15:06:36;5.72;;;4.80;;
12844;SDS011;68700;48.534;9.196;2023-05-28T15:09:58;6.82;;;5.55;;
12844;SDS011;68700;48.534;9.196;2023-05-28T15:13:21;8.15;;;5.70;;
12844;SDS011;68700;48.534;9.196;2023-05-28T15:16:43;9.27;;;5.47;;
12844;SDS011;68700;48.534;9.196;2023-05-28T15:20:05;6.50;;;5.03;;
12844;SDS011;68700;48.534;9.196;2023-05-28T15:23:28;6.85;;;5.13;;
12844;SDS011;68700;48.534;9.196;2023-05-28T15:26:50;6.25;;;4.97;;
12844;SDS011;68700;48.534;9.196;2023-05-28T15:30:14;8.00;;;5.03;;
12844;SDS011;68700;48.534;9.196;2023-05-28T15:33:36;5.13;;;4.55;;
12844;SDS011;68700;48.534;9.196;2023-05-28T15:36:58;6.38;;;5.00;;
12844;SDS011;68700;48.534;9.196;2023-05-28T15:40:20;5.88;;;4.82;;
12844;SDS011;68700;48.534;9.196;2023-05-28T15:43:43;5.55;;;4.78;;
12844;SDS011;68700;48.534;9.196;2023-05-28T15:47:06;7.47;;;5.38;;
12844;SDS011;68700;48.534;9.196;2023-05-28T15:50:28;6.55;;;4.70;;
12844;SDS011;68700;48.534;9.196;2023-05-28T15:53:50;6.60;;;4.80;;
12844;SDS011;68700;48.534;9.196;2023-05-28T15:57:12;5.65;;;4.85;;
12844;SDS011;68700;48.534;9.196;2023-05-28T16:00:35;5.45;;;4.80;;
12844;SDS011;68700;48.534;9.196;2023-05-28T16:03:59;7.18;;;5.10;;
12844;SDS011;68700;48.534;9.196;2023-05-28T16:07:22;7.45;;;4.80;;
12844;SDS011;68700;48.534;9.196;2023-05-28T16:10:44;6.47;;;4.82;;
12844;SDS011;68700;48.534;9.196;2023-05-28T16:14:06;7.10;;;4.90;;
12844;SDS011;68700;48.534;9.196;2023-05-28T16:17:30;6.33;;;4.93;;
12844;SDS011;68700;48.534;9.196;2023-05-28T16:20:58;7.23;;;4.97;;
12844;SDS011;68700;48.534;9.196;2023-05-28T16:24:22;8.07;;;5.10;;
12844;SDS011;68700;48.534;9.196;2023-05-28T16:27:44;7.43;;;5.03;;
12844;SDS011;68700;48.534;9.196;2023-05-28T16:31:07;7.97;;;5.03;;
12844;SDS011;68700;48.534;9.196;2023-05-28T16:34:31;5.87;;;4.77;;
12844;SDS011;68700;48.534;9.196;2023-05-28T16:37:55;8.30;;;5.03;;
12844;SDS011;68700;48.534;9.196;2023-05-28T16:41:17;7.73;;;5.33;;
12844;SDS011;68700;48.534;9.196;2023-05-28T16:44:40;7.37;;;5.03;;
12844;SDS011;68700;48.534;9.196;2023-05-28T16:48:02;8.07;;;5.40;;
12844;SDS011;68700;48.534;9.196;2023-05-28T16:51:24;6.23;;;5.30;;
12844;SDS011;68700;48.534;9.196;2023-05-28T16:54:50;7.53;;;5.43;;
12844;SDS011;68700;48.534;9.196;2023-05-28T16:58:15;9.23;;;5.40;;
12844;SDS011;68700;48.534;9.196;2023-05-28T17:01:38;8.80;;;5.10;;
12844;SDS011;68700;48.534;9.196;2023-05-28T17:05:00;6.20;;;4.93;;
12844;SDS011;68700;48.534;9.196;2023-05-28T17:08:22;7.03;;;5.20;;
12844;SDS011;68700;48.534;9.196;2023-05-28T17:11:46;6.63;;;5.03;;
12844;SDS011;68700;48.534;9.196;2023-05-28T17:15:08;6.67;;;5.10;;
12844;SDS011;68700;48.534;9.196;2023-05-28T17:18:30;8.73;;;5.50;;
12844;SDS011;68700;48.534;9.196;2023-05-28T17:21:52;6.43;;;5.40;;
12844;SDS011;68700;48.534;9.196;2023-05-28T17:25:14;7.90;;;5.57;;
12844;SDS011;68700;48.534;9.196;2023-05-28T17:28:39;9.30;;;5.50;;
12844;SDS011;68700;48.534;9.196;2023-05-28T17:32:01;7.57;;;5.30;;
12844;SDS011;68700;48.534;9.196;2023-05-28T17:35:23;7.37;;;5.10;;
12844;SDS011;68700;48.534;9.196;2023-05-28T17:38:45;8.00;;;5.10;;
12844;SDS011;68700;48.534;9.196;2023-05-28T17:42:07;9.50;;;5.33;;
12844;SDS011;68700;48.534;9.196;2023-05-28T17:45:30;8.70;;;5.77;;
12844;SDS011;68700;48.534;9.196;2023-05-28T17:48:53;8.27;;;5.23;;
12844;SDS011;68700;48.534;9.196;2023-05-28T17:52:15;7.83;;;5.10;;
12844;SDS011;68700;48.534;9.196;2023-05-28T17:55:37;7.50;;;5.90;;
12844;SDS011;68700;48.534;9.196;2023-05-28T17:58:58;7.80;;;5.73;;
12844;SDS011;68700;48.534;9.196;2023-05-28T18:02:23;7.37;;;5.70;;
12844;SDS011;68700;48.534;9.196;2023-05-28T18:05:45;7.70;;;5.77;;
12844;SDS011;68700;48.534;9.196;2023-05-28T18:09:07;6.50;;;5.27;;
12844;SDS011;68700;48.534;9.196;2023-05-28T18:12:29;8.50;;;6.00;;
12844;SDS011;68700;48.534;9.196;2023-05-28T18:15:51;7.90;;;5.57;;
12844;SDS011;68700;48.534;9.196;2023-05-28T18:19:15;7.90;;;6.17;;
12844;SDS011;68700;48.534;9.196;2023-05-28T18:22:37;10.40;;;7.07;;
12844;SDS011;68700;48.534;9.196;2023-05-28T18:25:59;9.23;;;7.10;;
12844;SDS011;68700;48.534;9.196;2023-05-28T18:29:21;11.17;;;8.30;;
12844;SDS011;68700;48.534;9.196;2023-05-28T18:32:43;9.23;;;6.70;;
12844;SDS011;68700;48.534;9.196;2023-05-28T18:36:06;9.73;;;6.67;;
12844;SDS011;68700;48.534;9.196;2023-05-28T18:39:28;8.40;;;5.73;;
12844;SDS011;68700;48.534;9.196;2023-05-28T18:42:50;9.93;;;5.67;;
12844;SDS011;68700;48.534;9.196;2023-05-28T18:46:13;11.83;;;5.60;;
12844;SDS011;68700;48.534;9.196;2023-05-28T18:49:35;7.80;;;4.87;;
12844;SDS011;68700;48.534;9.196;2023-05-28T18:52:58;10.13;;;5.80;;
12844;SDS011;68700;48.534;9.196;2023-05-28T18:56:20;7.13;;;4.83;;
12844;SDS011;68700;48.534;9.196;2023-05-28T18:59:42;8.40;;;5.20;;
12844;SDS011;68700;48.534;9.196;2023-05-28T19:03:04;7.93;;;5.83;;
12844;SDS011;68700;48.534;9.196;2023-05-28T19:06:26;7.80;;;5.40;;
12844;SDS011;68700;48.534;9.196;2023-05-28T19:09:49;8.20;;;5.20;;
12844;SDS011;68700;48.534;9.196;2023-05-28T19:13:11;6.97;;;5.13;;
12844;SDS011;68700;48.534;9.196;2023-05-28T19:16:32;7.90;;;5.53;;
12844;SDS011;68700;48.534;9.196;2023-05-28T19:19:54;8.83;;;5.17;;
12844;SDS011;68700;48.534;9.196;2023-05-28T19:23:16;6.07;;;5.40;;
12844;SDS011;68700;48.534;9.196;2023-05-28T19:26:39;7.10;;;5.30;;
12844;SDS011;68700;48.534;9.196;2023-05-28T19:30:01;9.80;;;6.30;;
12844;SDS011;68700;48.534;9.196;2023-05-28T19:33:26;8.63;;;6.00;;
12844;SDS011;68700;48.534;9.196;2023-05-28T19:36:50;6.87;;;5.50;;
12844;SDS011;68700;48.534;9.196;2023-05-28T19:40:12;7.43;;;6.00;;
12844;SDS011;68700;48.534;9.196;2023-05-28T19:43:36;8.17;;;5.50;;
12844;SDS011;68700;48.534;9.196;2023-05-28T19:46:57;6.47;;;4.90;;
12844;SDS011;68700;48.534;9.196;2023-05-28T19:50:19;6.63;;;5.00;;
12844;SDS011;68700;48.534;9.196;2023-05-28T19:53:41;7.90;;;5.60;;
12844;SDS011;68700;48.534;9.196;2023-05-28T19:57:03;7.60;;;5.30;;
12844;SDS011;68700;48.534;9.196;2023-05-28T20:00:29;7.70;;;5.83;;
12844;SDS011;68700;48.534;9.196;2023-05-28T20:03:50;8.43;;;5.70;;
12844;SDS011;68700;48.534;9.196;2023-05-28T20:07:12;6.53;;;5.23;;
12844;SDS011;68700;48.534;9.196;2023-05-28T20:10:34;6.97;;;5.30;;
12844;SDS011;68700;48.534;9.196;2023-05-28T20:13:56;9.80;;;5.03;;
12844;SDS011;68700;48.534;9.196;2023-05-28T20:17:19;7.07;;;4.80;;
12844;SDS011;68700;48.534;9.196;2023-05-28T20:20:41;7.17;;;5.13;;